createdAt,value
2018-08-06T00:02:20.455Z,17.03
2018-08-06T00:04:48.970Z,17.05
2018-08-06T00:07:17.502Z,17.06
2018-08-06T00:09:45.993Z,17.02
2018-08-06T00:12:14.480Z,17.02
2018-08-06T00:14:43.148Z,16.86
2018-08-06T00:17:12.028Z,16.89
2018-08-06T00:19:40.621Z,17.03
2018-08-06T00:22:09.314Z,17.02
2018-08-06T00:24:37.804Z,17.03
2018-08-06T00:27:06.609Z,16.99
2018-08-06T00:29:35.180Z,16.90
2018-08-06T00:32:04.022Z,16.95
2018-08-06T00:34:32.504Z,17.09
2018-08-06T00:37:00.990Z,17.01
2018-08-06T00:39:29.497Z,17.13
2018-08-06T00:41:57.956Z,16.97
2018-08-06T00:44:26.502Z,17.02
2018-08-06T00:46:54.963Z,16.90
2018-08-06T00:49:23.464Z,16.91
2018-08-06T00:51:51.992Z,16.89
2018-08-06T00:54:20.480Z,16.89
2018-08-06T00:56:48.969Z,16.85
2018-08-06T00:59:17.486Z,16.83
2018-08-06T01:01:45.933Z,16.84
2018-08-06T01:04:14.440Z,16.80
2018-08-06T01:06:42.921Z,16.66
2018-08-06T01:09:11.442Z,16.61
2018-08-06T01:11:39.942Z,16.59
2018-08-06T01:14:08.588Z,16.56
2018-08-06T01:16:37.109Z,16.58
2018-08-06T01:19:06.174Z,16.56
2018-08-06T01:21:34.733Z,16.67
2018-08-06T01:24:03.292Z,16.58
2018-08-06T01:26:31.778Z,16.34
2018-08-06T01:29:00.316Z,16.45
2018-08-06T01:31:28.832Z,16.22
2018-08-06T01:33:57.281Z,16.41
2018-08-06T01:36:25.805Z,16.46
2018-08-06T01:38:54.360Z,16.41
2018-08-06T01:41:22.872Z,16.27
2018-08-06T01:43:51.426Z,16.19
2018-08-06T01:46:19.961Z,16.12
2018-08-06T01:48:48.478Z,16.06
2018-08-06T01:51:17.041Z,16.10
2018-08-06T01:53:45.585Z,16.02
2018-08-06T01:56:14.088Z,16.09
2018-08-06T01:58:42.557Z,15.95
2018-08-06T02:01:11.059Z,16.00
2018-08-06T02:03:39.573Z,16.02
2018-08-06T02:06:08.053Z,15.91
2018-08-06T02:08:36.595Z,15.94
2018-08-06T02:11:05.193Z,15.85
2018-08-06T02:13:33.741Z,15.97
2018-08-06T02:16:02.282Z,15.89
2018-08-06T02:18:31.462Z,15.81
2018-08-06T02:20:59.949Z,15.85
2018-08-06T02:23:28.549Z,15.79
2018-08-06T02:25:57.185Z,15.77
2018-08-06T02:28:25.767Z,15.81
2018-08-06T02:30:54.319Z,15.89
2018-08-06T02:33:22.898Z,15.87
2018-08-06T02:35:51.741Z,15.78
2018-08-06T02:38:20.234Z,15.81
2018-08-06T02:40:48.779Z,15.76
2018-08-06T02:43:17.723Z,15.74
2018-08-06T02:45:46.379Z,15.71
2018-08-06T02:48:14.897Z,15.66
2018-08-06T02:50:43.490Z,15.59
2018-08-06T02:53:12.097Z,15.64
2018-08-06T02:55:40.609Z,15.63
2018-08-06T02:58:09.134Z,15.67
2018-08-06T03:00:37.650Z,15.68
2018-08-06T03:03:06.137Z,15.76
2018-08-06T03:05:35.751Z,15.60
2018-08-06T03:08:04.246Z,15.70
2018-08-06T03:10:32.757Z,15.67
2018-08-06T03:13:01.284Z,15.70
2018-08-06T03:15:29.802Z,15.74
2018-08-06T03:17:58.794Z,15.77
2018-08-06T03:20:27.278Z,15.67
2018-08-06T03:22:55.773Z,15.68
2018-08-06T03:25:24.290Z,15.73
2018-08-06T03:27:52.885Z,15.64
2018-08-06T03:30:21.453Z,15.58
2018-08-06T03:32:50.165Z,15.65
2018-08-06T03:35:18.808Z,15.67
2018-08-06T03:37:47.347Z,15.58
2018-08-06T03:40:15.967Z,15.67
2018-08-06T03:42:44.870Z,15.66
2018-08-06T03:45:13.486Z,15.55
2018-08-06T03:47:42.826Z,15.53
2018-08-06T03:50:12.813Z,15.47
2018-08-06T03:52:41.385Z,15.44
2018-08-06T03:55:10.970Z,15.40
2018-08-06T03:57:40.172Z,15.44
2018-08-06T04:00:11.163Z,15.35
2018-08-06T04:02:39.935Z,15.48
2018-08-06T04:05:10.274Z,15.48
2018-08-06T04:07:39.292Z,15.34
2018-08-06T04:10:09.330Z,15.34
2018-08-06T04:12:38.030Z,15.32
2018-08-06T04:15:07.491Z,15.15
2018-08-06T04:17:35.999Z,15.14
2018-08-06T04:20:05.114Z,15.28
2018-08-06T04:22:33.593Z,15.23
2018-08-06T04:25:02.533Z,15.32
2018-08-06T04:27:31.033Z,15.36
2018-08-06T04:29:59.573Z,15.34
2018-08-06T04:32:28.194Z,15.44
2018-08-06T04:34:56.757Z,15.41
2018-08-06T04:37:25.437Z,15.43
2018-08-06T04:39:54.426Z,15.54
2018-08-06T04:42:23.917Z,15.66
2018-08-06T04:44:52.439Z,15.67
2018-08-06T04:47:21.331Z,15.79
2018-08-06T04:49:49.903Z,16.00
2018-08-06T04:52:18.440Z,15.99
2018-08-06T04:54:47.013Z,15.99
2018-08-06T04:57:15.559Z,16.10
2018-08-06T04:59:44.101Z,16.12
2018-08-06T05:02:12.755Z,16.09
2018-08-06T05:04:41.261Z,16.12
2018-08-06T05:07:09.806Z,16.28
2018-08-06T05:09:43.300Z,16.40
2018-08-06T05:12:11.797Z,16.46
2018-08-06T05:14:41.033Z,16.42
2018-08-06T05:17:09.617Z,16.67
2018-08-06T05:19:38.455Z,16.71
2018-08-06T05:22:07.487Z,16.86
2018-08-06T05:24:36.043Z,17.06
2018-08-06T05:27:04.627Z,17.06
2018-08-06T05:29:33.139Z,17.15
2018-08-06T05:32:01.657Z,17.43
2018-08-06T05:34:30.199Z,19.20
2018-08-06T05:36:58.690Z,21.58
2018-08-06T05:39:27.302Z,24.80
2018-08-06T05:41:55.782Z,26.22
2018-08-06T05:44:24.326Z,26.87
2018-08-06T05:46:52.876Z,26.71
2018-08-06T05:49:21.474Z,29.00
2018-08-06T05:51:49.993Z,30.40
2018-08-06T05:54:18.596Z,30.69
2018-08-06T05:56:47.109Z,30.36
2018-08-06T05:59:16.056Z,31.19
2018-08-06T06:01:44.639Z,30.96
2018-08-06T06:04:13.277Z,31.61
2018-08-06T06:06:41.797Z,32.37
2018-08-06T06:09:11.081Z,32.34
2018-08-06T06:11:39.921Z,30.66
2018-08-06T06:14:09.254Z,32.52
2018-08-06T06:16:37.894Z,33.03
2018-08-06T06:19:06.703Z,33.08
2018-08-06T06:21:35.227Z,32.81
2018-08-06T06:24:03.826Z,33.45
2018-08-06T06:26:32.361Z,34.52
2018-08-06T06:29:00.942Z,33.75
2018-08-06T06:31:29.571Z,32.57
2018-08-06T06:33:58.093Z,32.36
2018-08-06T06:36:26.898Z,33.35
2018-08-06T06:38:55.517Z,32.33
2018-08-06T06:41:24.168Z,33.87
2018-08-06T06:43:53.123Z,33.75
2018-08-06T06:46:21.721Z,31.42
2018-08-06T06:48:50.663Z,32.80
2018-08-06T06:51:19.242Z,34.46
2018-08-06T06:53:47.747Z,32.52
2018-08-06T06:56:16.411Z,33.29
2018-08-06T06:58:44.971Z,33.07
2018-08-06T07:01:13.559Z,33.24
2018-08-06T07:03:42.066Z,29.00
2018-08-06T07:06:10.633Z,26.07
2018-08-06T07:08:39.301Z,24.59
2018-08-06T07:11:07.882Z,22.80
2018-08-06T07:13:36.535Z,22.23
2018-08-06T07:16:05.386Z,21.93
2018-08-06T07:18:33.922Z,21.87
2018-08-06T07:21:02.452Z,22.00
2018-08-06T07:23:30.973Z,22.06
2018-08-06T07:25:59.894Z,21.93
2018-08-06T07:28:28.438Z,21.90
2018-08-06T07:30:57.043Z,22.06
2018-08-06T07:33:25.874Z,22.01
2018-08-06T07:35:54.454Z,22.03
2018-08-06T07:38:22.929Z,22.10
2018-08-06T07:40:51.502Z,22.32
2018-08-06T07:43:20.174Z,22.45
2018-08-06T07:45:48.675Z,22.62
2018-08-06T07:48:17.226Z,22.67
2018-08-06T07:50:45.828Z,22.69
2018-08-06T07:53:14.630Z,22.82
2018-08-06T07:55:43.237Z,22.93
2018-08-06T07:58:12.322Z,23.05
2018-08-06T08:00:40.880Z,23.27
2018-08-06T08:03:09.477Z,23.42
2018-08-06T08:05:38.066Z,23.58
2018-08-06T08:08:06.618Z,23.54
2018-08-06T08:10:35.199Z,23.80
2018-08-06T08:13:03.739Z,23.77
2018-08-06T08:15:32.318Z,23.81
2018-08-06T08:18:00.840Z,23.85
2018-08-06T08:20:29.414Z,23.95
2018-08-06T08:22:58.007Z,24.00
2018-08-06T08:25:26.521Z,24.14
2018-08-06T08:27:55.141Z,24.18
2018-08-06T08:30:23.636Z,24.41
2018-08-06T08:32:52.297Z,24.43
2018-08-06T08:35:21.298Z,24.47
2018-08-06T08:37:49.877Z,24.54
2018-08-06T08:40:19.678Z,24.63
2018-08-06T08:42:48.207Z,24.71
2018-08-06T08:45:18.353Z,24.72
2018-08-06T08:47:47.030Z,24.82
2018-08-06T08:50:18.255Z,24.86
2018-08-06T08:52:46.892Z,25.09
2018-08-06T08:55:16.798Z,25.14
2018-08-06T08:57:45.553Z,25.19
2018-08-06T09:00:18.149Z,25.12
2018-08-06T09:02:47.883Z,25.10
2018-08-06T09:05:17.237Z,25.45
2018-08-06T09:07:45.937Z,25.56
2018-08-06T09:10:15.604Z,25.59
2018-08-06T09:12:44.361Z,25.51
2018-08-06T09:15:23.137Z,25.54
2018-08-06T09:17:51.666Z,25.75
2018-08-06T09:20:21.762Z,25.73
2018-08-06T09:22:50.361Z,25.77
2018-08-06T09:25:18.874Z,25.91
2018-08-06T09:27:48.783Z,25.88
2018-08-06T09:30:20.487Z,25.89
2018-08-06T09:32:50.225Z,25.95
2018-08-06T09:35:19.270Z,26.09
2018-08-06T09:37:47.787Z,26.11
2018-08-06T09:40:18.564Z,26.22
2018-08-06T09:42:47.779Z,26.29
2018-08-06T09:45:17.446Z,26.37
2018-08-06T09:47:47.130Z,26.55
2018-08-06T09:50:17.322Z,26.68
2018-08-06T09:52:46.898Z,26.66
2018-08-06T09:55:18.545Z,26.80
2018-08-06T09:57:48.059Z,26.62
2018-08-06T10:00:23.790Z,26.62
2018-08-06T10:02:53.034Z,26.81
2018-08-06T10:05:22.626Z,26.88
2018-08-06T10:07:51.280Z,26.80
2018-08-06T10:10:19.785Z,26.94
2018-08-06T10:12:48.408Z,26.95
2018-08-06T10:15:17.230Z,26.96
2018-08-06T10:17:46.590Z,27.16
2018-08-06T10:20:17.343Z,27.07
2018-08-06T10:22:45.897Z,27.14
2018-08-06T10:25:15.149Z,27.10
2018-08-06T10:27:44.857Z,27.19
2018-08-06T10:30:16.739Z,27.21
2018-08-06T10:32:45.634Z,27.31
2018-08-06T10:35:15.703Z,27.31
2018-08-06T10:37:45.627Z,27.22
2018-08-06T10:40:17.994Z,27.47
2018-08-06T10:42:47.364Z,27.64
2018-08-06T10:45:17.033Z,27.69
2018-08-06T10:47:47.254Z,27.78
2018-08-06T10:50:15.846Z,27.80
2018-08-06T10:52:44.438Z,27.72
2018-08-06T10:55:13.331Z,27.54
2018-08-06T10:57:43.399Z,27.87
2018-08-06T11:00:18.041Z,28.19
2018-08-06T11:02:46.870Z,28.36
2018-08-06T11:05:16.251Z,28.34
2018-08-06T11:07:44.866Z,28.38
2018-08-06T11:10:19.908Z,28.31
2018-08-06T11:12:48.523Z,28.24
2018-08-06T11:15:22.905Z,28.29
2018-08-06T11:17:52.852Z,28.22
2018-08-06T11:20:21.937Z,28.20
2018-08-06T11:22:52.018Z,28.07
2018-08-06T11:25:22.395Z,28.17
2018-08-06T11:27:52.557Z,28.36
2018-08-06T11:30:22.245Z,28.17
2018-08-06T11:32:52.682Z,28.32
2018-08-06T11:35:21.578Z,28.35
2018-08-06T11:37:50.193Z,28.63
2018-08-06T11:40:19.057Z,28.84
2018-08-06T11:42:48.557Z,28.60
2018-08-06T11:45:18.433Z,28.55
2018-08-06T11:47:47.022Z,28.57
2018-08-06T11:50:15.638Z,28.44
2018-08-06T11:52:44.317Z,28.38
2018-08-06T11:55:15.241Z,28.46
2018-08-06T11:57:44.043Z,28.81
2018-08-06T12:00:19.534Z,29.04
2018-08-06T12:02:48.124Z,29.22
2018-08-06T12:05:16.802Z,29.32
2018-08-06T12:07:46.799Z,29.42
2018-08-06T12:10:17.803Z,29.22
2018-08-06T12:12:47.202Z,29.26
2018-08-06T12:15:16.384Z,29.29
2018-08-06T12:17:45.122Z,28.86
2018-08-06T12:20:15.522Z,29.05
2018-08-06T12:22:45.356Z,29.39
2018-08-06T12:25:14.755Z,29.31
2018-08-06T12:27:43.807Z,29.45
2018-08-06T12:30:14.491Z,29.58
2018-08-06T12:32:43.629Z,29.45
2018-08-06T12:35:12.133Z,29.56
2018-08-06T12:37:40.730Z,29.42
2018-08-06T12:40:13.846Z,29.20
2018-08-06T12:42:42.745Z,29.32
2018-08-06T12:45:12.147Z,29.48
2018-08-06T12:47:41.077Z,29.62
2018-08-06T12:50:10.871Z,29.85
2018-08-06T12:52:40.323Z,30.05
2018-08-06T12:55:10.331Z,29.96
2018-08-06T12:57:39.507Z,30.05
2018-08-06T13:00:20.012Z,30.18
2018-08-06T13:02:49.633Z,30.12
2018-08-06T13:05:18.690Z,30.04
2018-08-06T13:07:47.254Z,29.63
2018-08-06T13:10:16.007Z,29.84
2018-08-06T13:12:44.762Z,30.13
2018-08-06T13:15:14.446Z,30.03
2018-08-06T13:17:43.681Z,30.00
2018-08-06T13:20:16.366Z,30.20
2018-08-06T13:22:45.351Z,30.15
2018-08-06T13:25:14.029Z,30.14
2018-08-06T13:27:42.571Z,30.32
2018-08-06T13:30:13.678Z,30.31
2018-08-06T13:32:43.301Z,30.19
2018-08-06T13:35:12.537Z,30.30
2018-08-06T13:37:42.396Z,30.17
2018-08-06T13:40:11.294Z,30.40
2018-08-06T13:42:40.394Z,30.63
2018-08-06T13:45:10.933Z,30.75
2018-08-06T13:47:41.202Z,30.90
2018-08-06T13:50:11.174Z,31.02
2018-08-06T13:52:39.792Z,30.78
2018-08-06T13:55:09.941Z,30.88
2018-08-06T13:57:38.590Z,30.98
2018-08-06T14:00:10.937Z,30.89
2018-08-06T14:02:39.443Z,30.97
2018-08-06T14:05:10.268Z,31.08
2018-08-06T14:07:38.797Z,30.84
2018-08-06T14:10:08.377Z,31.09
2018-08-06T14:12:37.531Z,31.28
2018-08-06T14:15:07.154Z,31.20
2018-08-06T14:17:35.702Z,30.90
2018-08-06T14:20:04.696Z,31.10
2018-08-06T14:22:33.301Z,31.23
2018-08-06T14:25:01.829Z,31.33
2018-08-06T14:27:31.189Z,31.42
2018-08-06T14:30:00.014Z,31.50
2018-08-06T14:32:28.546Z,31.40
2018-08-06T14:34:57.104Z,31.51
2018-08-06T14:37:25.593Z,31.51
2018-08-06T14:39:54.137Z,31.50
2018-08-06T14:42:22.661Z,31.45
2018-08-06T14:44:51.126Z,31.39
2018-08-06T14:47:19.687Z,31.38
2018-08-06T14:49:48.263Z,31.48
2018-08-06T14:52:18.252Z,31.54
2018-08-06T14:54:46.854Z,31.59
2018-08-06T14:57:15.861Z,31.66
2018-08-06T14:59:44.365Z,31.75
2018-08-06T15:02:12.995Z,31.79
2018-08-06T15:04:41.538Z,31.76
2018-08-06T15:07:10.061Z,31.91
2018-08-06T15:09:38.779Z,31.67
2018-08-06T15:12:07.519Z,31.83
2018-08-06T15:14:36.042Z,31.86
2018-08-06T15:17:04.663Z,31.89
2018-08-06T15:19:33.204Z,31.91
2018-08-06T15:22:01.749Z,31.81
2018-08-06T15:24:30.969Z,31.80
2018-08-06T15:26:59.498Z,31.77
2018-08-06T15:29:28.079Z,31.86
2018-08-06T15:31:57.036Z,31.90
2018-08-06T15:34:25.566Z,31.86
2018-08-06T15:36:54.070Z,31.78
2018-08-06T15:39:23.821Z,31.52
2018-08-06T15:41:52.319Z,31.50
2018-08-06T15:44:20.817Z,31.68
2018-08-06T15:46:49.322Z,31.59
2018-08-06T15:49:17.919Z,31.58
2018-08-06T15:51:46.445Z,31.91
2018-08-06T15:54:15.223Z,32.20
2018-08-06T15:56:43.698Z,32.48
2018-08-06T15:59:12.257Z,32.52
2018-08-06T16:01:40.791Z,32.43
2018-08-06T16:04:09.350Z,32.39
2018-08-06T16:06:37.926Z,32.48
2018-08-06T16:09:08.249Z,32.39
2018-08-06T16:11:36.720Z,32.31
2018-08-06T16:14:05.805Z,32.07
2018-08-06T16:16:34.350Z,32.08
2018-08-06T16:19:02.819Z,32.10
2018-08-06T16:21:31.387Z,32.29
2018-08-06T16:23:59.933Z,32.32
2018-08-06T16:26:28.441Z,32.29
2018-08-06T16:28:57.297Z,32.37
2018-08-06T16:31:25.829Z,32.41
2018-08-06T16:33:54.662Z,32.32
2018-08-06T16:36:24.585Z,32.16
2018-08-06T16:38:53.106Z,32.11
2018-08-06T16:41:21.674Z,31.81
2018-08-06T16:43:50.221Z,31.98
2018-08-06T16:46:18.788Z,31.96
2018-08-06T16:48:47.362Z,31.79
2018-08-06T16:51:16.120Z,31.77
2018-08-06T16:53:44.829Z,31.69
2018-08-06T16:56:13.476Z,31.41
2018-08-06T16:58:42.058Z,31.37
2018-08-06T17:01:10.629Z,31.61
2018-08-06T17:03:39.276Z,31.72
2018-08-06T17:06:07.905Z,31.82
2018-08-06T17:08:36.786Z,31.92
2018-08-06T17:11:05.318Z,31.99
2018-08-06T17:13:33.798Z,32.08
2018-08-06T17:16:02.418Z,32.08
2018-08-06T17:18:31.284Z,31.88
2018-08-06T17:21:03.011Z,31.87
2018-08-06T17:23:31.607Z,31.61
2018-08-06T17:26:00.244Z,31.59
2018-08-06T17:28:28.836Z,31.66
2018-08-06T17:30:57.374Z,31.78
2018-08-06T17:33:25.859Z,31.89
2018-08-06T17:35:54.467Z,31.81
2018-08-06T17:38:23.117Z,31.76
2018-08-06T17:40:51.730Z,31.77
2018-08-06T17:43:20.331Z,31.79
2018-08-06T17:45:48.890Z,31.74
2018-08-06T17:48:17.409Z,31.76
2018-08-06T17:50:45.926Z,31.56
2018-08-06T17:53:14.453Z,31.45
2018-08-06T17:55:42.959Z,31.29
2018-08-06T17:58:11.474Z,31.27
2018-08-06T18:00:40.040Z,31.27
2018-08-06T18:03:08.614Z,31.20
2018-08-06T18:05:37.159Z,31.17
2018-08-06T18:08:06.941Z,31.10
2018-08-06T18:10:35.498Z,30.98
2018-08-06T18:13:04.054Z,31.03
2018-08-06T18:15:32.569Z,31.21
2018-08-06T18:18:01.139Z,31.68
2018-08-06T18:20:29.671Z,31.93
2018-08-06T18:22:58.230Z,31.83
2018-08-06T18:25:26.798Z,31.55
2018-08-06T18:27:55.308Z,31.23
2018-08-06T18:30:23.906Z,30.99
2018-08-06T18:32:52.441Z,30.79
2018-08-06T18:35:21.044Z,30.57
2018-08-06T18:37:49.620Z,30.30
2018-08-06T18:40:19.369Z,30.12
2018-08-06T18:42:47.928Z,29.97
2018-08-06T18:45:17.960Z,29.75
2018-08-06T18:47:47.815Z,29.51
2018-08-06T18:50:17.270Z,29.28
2018-08-06T18:52:46.634Z,29.02
2018-08-06T18:55:15.817Z,28.81
2018-08-06T18:57:45.380Z,28.61
2018-08-06T19:00:17.364Z,28.33
2018-08-06T19:02:46.588Z,28.12
2018-08-06T19:05:15.236Z,27.91
2018-08-06T19:07:43.977Z,27.67
2018-08-06T19:10:12.881Z,27.34
2018-08-06T19:12:48.325Z,27.05
2018-08-06T19:15:16.886Z,27.01
2018-08-06T19:17:50.725Z,26.76
2018-08-06T19:20:19.291Z,26.56
2018-08-06T19:22:47.879Z,26.58
2018-08-06T19:25:21.583Z,26.48
2018-08-06T19:27:50.378Z,26.42
2018-08-06T19:30:19.340Z,26.27
2018-08-06T19:32:47.911Z,26.16
2018-08-06T19:35:16.451Z,26.03
2018-08-06T19:37:47.473Z,25.80
2018-08-06T19:40:16.323Z,25.67
2018-08-06T19:42:50.122Z,25.62
2018-08-06T19:45:18.901Z,25.42
2018-08-06T19:47:47.688Z,25.32
2018-08-06T19:50:21.546Z,25.13
2018-08-06T19:52:50.070Z,24.94
2018-08-06T19:55:25.757Z,24.86
2018-08-06T19:57:54.264Z,24.88
2018-08-06T20:00:22.869Z,24.92
2018-08-06T20:02:52.323Z,24.91
2018-08-06T20:05:20.858Z,24.91
2018-08-06T20:07:49.581Z,25.07
2018-08-06T20:10:18.159Z,25.20
2018-08-06T20:12:46.890Z,25.31
2018-08-06T20:15:18.711Z,25.30
2018-08-06T20:17:48.155Z,25.34
2018-08-06T20:20:16.695Z,25.20
2018-08-06T20:22:45.643Z,25.17
2018-08-06T20:25:17.347Z,25.07
2018-08-06T20:27:46.947Z,24.97
2018-08-06T20:30:17.109Z,24.88
2018-08-06T20:32:45.802Z,24.77
2018-08-06T20:35:15.858Z,24.72
2018-08-06T20:37:44.467Z,24.59
2018-08-06T20:40:13.400Z,24.56
2018-08-06T20:42:43.245Z,24.42
2018-08-06T20:45:14.590Z,24.42
2018-08-06T20:47:44.287Z,24.25
2018-08-06T20:50:14.782Z,24.23
2018-08-06T20:52:43.411Z,24.12
2018-08-06T20:55:12.564Z,24.07
2018-08-06T20:57:41.861Z,23.99
2018-08-06T21:00:19.009Z,23.90
2018-08-06T21:02:48.365Z,23.86
2018-08-06T21:05:17.162Z,23.85
2018-08-06T21:07:45.686Z,23.81
2018-08-06T21:10:15.484Z,23.76
2018-08-06T21:12:44.242Z,23.78
2018-08-06T21:15:13.867Z,23.83
2018-08-06T21:17:42.874Z,23.77
2018-08-06T21:20:12.920Z,23.62
2018-08-06T21:22:42.958Z,23.52
2018-08-06T21:25:12.357Z,23.38
2018-08-06T21:27:42.178Z,23.32
2018-08-06T21:30:14.146Z,23.31
2018-08-06T21:32:45.190Z,23.31
2018-08-06T21:35:14.135Z,23.22
2018-08-06T21:37:42.846Z,23.26
2018-08-06T21:40:11.414Z,23.32
2018-08-06T21:42:39.967Z,23.38
2018-08-06T21:45:08.479Z,23.31
2018-08-06T21:47:37.147Z,23.25
2018-08-06T21:50:06.702Z,23.19
2018-08-06T21:52:35.270Z,23.20
2018-08-06T21:55:03.877Z,23.19
2018-08-06T21:57:32.409Z,23.18
2018-08-06T22:00:01.127Z,23.19
2018-08-06T22:02:29.722Z,23.17
2018-08-06T22:04:58.249Z,23.13
2018-08-06T22:07:26.831Z,23.05
2018-08-06T22:09:55.475Z,22.96
2018-08-06T22:12:24.258Z,22.92
2018-08-06T22:14:52.858Z,22.85
2018-08-06T22:17:21.564Z,22.83
2018-08-06T22:19:50.094Z,22.74
2018-08-06T22:22:18.595Z,22.80
2018-08-06T22:24:47.134Z,22.75
2018-08-06T22:27:15.677Z,22.67
2018-08-06T22:29:44.361Z,22.59
2018-08-06T22:32:12.913Z,22.66
2018-08-06T22:34:41.510Z,22.64
2018-08-06T22:37:10.090Z,22.57
2018-08-06T22:39:38.648Z,22.42
2018-08-06T22:42:07.191Z,22.40
2018-08-06T22:44:35.737Z,22.41
2018-08-06T22:47:04.282Z,22.42
2018-08-06T22:49:32.906Z,22.46
2018-08-06T22:52:01.404Z,22.31
2018-08-06T22:56:57.673Z,22.37
2018-08-06T22:59:26.253Z,22.38
2018-08-06T23:01:55.005Z,22.31
2018-08-06T23:04:30.852Z,22.23
2018-08-06T23:06:59.628Z,22.16
2018-08-06T23:09:28.288Z,22.14
2018-08-06T23:11:56.821Z,22.21
2018-08-06T23:14:25.440Z,22.21
2018-08-06T23:16:54.330Z,22.21
2018-08-06T23:19:23.466Z,22.16
2018-08-06T23:21:52.023Z,22.16
2018-08-06T23:24:21.201Z,22.18
2018-08-06T23:26:49.832Z,22.08
2018-08-06T23:29:18.755Z,22.15
2018-08-06T23:31:47.296Z,22.07
2018-08-06T23:34:15.804Z,22.00
2018-08-06T23:36:44.325Z,21.92
2018-08-06T23:39:12.842Z,21.97
2018-08-06T23:41:41.420Z,21.87
2018-08-06T23:44:10.081Z,21.81
2018-08-06T23:46:38.681Z,21.85
2018-08-06T23:49:07.156Z,21.81
2018-08-06T23:51:36.574Z,21.80
2018-08-06T23:54:05.150Z,21.76
2018-08-06T23:56:33.632Z,21.72
2018-08-06T23:59:02.181Z,21.71
